createdAt,value
2023-04-24T00:01:59.668Z,99674.09
2023-04-24T00:04:28.122Z,99669.75
2023-04-24T00:06:58.438Z,99661.72
2023-04-24T00:09:26.679Z,99669.06
2023-04-24T00:11:55.075Z,99664.41
2023-04-24T00:14:25.974Z,99671.59
2023-04-24T00:16:54.028Z,99661.72
2023-04-24T00:19:23.602Z,99663.56
2023-04-24T00:21:52.044Z,99656.38
2023-04-24T00:24:20.375Z,99666.22
2023-04-24T00:26:48.601Z,99625.34
2023-04-24T00:29:16.678Z,99660.88
2023-04-24T00:31:44.827Z,99654.00
2023-04-24T00:34:13.718Z,99651.03
2023-04-24T00:36:43.235Z,99651.03
2023-04-24T00:39:11.292Z,99651.03
2023-04-24T00:41:39.500Z,99656.38
2023-04-24T00:44:07.893Z,99649.34
2023-04-24T00:46:36.178Z,99649.34
2023-04-24T00:49:05.025Z,99649.34
2023-04-24T00:51:33.888Z,99653.00
2023-04-24T00:54:03.619Z,99651.34
2023-04-24T00:56:32.041Z,99588.41
2023-04-24T00:59:00.372Z,99648.50
2023-04-24T01:01:28.562Z,99660.06
2023-04-24T01:03:57.689Z,99654.72
2023-04-24T01:06:29.638Z,99532.41
2023-04-24T01:08:57.951Z,99644.00
2023-04-24T01:11:27.782Z,99646.69
2023-04-24T01:13:55.840Z,99651.03
2023-04-24T01:16:23.963Z,99648.50
2023-04-24T01:18:52.365Z,99638.66
2023-04-24T01:21:20.973Z,99650.16
2023-04-24T01:23:50.418Z,99653.69
2023-04-24T01:26:21.094Z,99645.66
2023-04-24T01:28:49.985Z,99629.00
2023-04-24T01:31:18.250Z,99633.59
2023-04-24T01:33:46.329Z,99646.50
2023-04-24T01:36:14.528Z,99628.56
2023-04-24T01:38:42.644Z,99645.66
2023-04-24T01:41:12.484Z,99643.84
2023-04-24T01:43:40.710Z,99643.16
2023-04-24T01:46:09.165Z,99642.28
2023-04-24T01:48:37.989Z,99638.66
2023-04-24T01:51:06.123Z,99631.59
2023-04-24T01:53:34.185Z,99632.44
2023-04-24T01:56:03.784Z,99621.72
2023-04-24T01:58:33.882Z,99627.94
2023-04-24T02:01:02.357Z,99619.91
2023-04-24T02:03:30.668Z,99629.59
2023-04-24T02:05:58.866Z,99633.28
2023-04-24T02:08:26.960Z,99633.28
2023-04-24T02:10:55.077Z,99624.56
2023-04-24T02:13:23.106Z,99613.53
2023-04-24T02:15:52.571Z,99610.88
2023-04-24T02:18:20.971Z,99597.47
2023-04-24T02:20:49.017Z,99597.47
2023-04-24T02:23:17.071Z,99601.16
2023-04-24T02:25:45.107Z,99592.13
2023-04-24T02:28:13.157Z,99599.16
2023-04-24T02:30:41.224Z,99597.47
2023-04-24T02:33:10.898Z,99609.84
2023-04-24T02:35:39.204Z,99612.69
2023-04-24T02:38:07.468Z,99602.84
2023-04-24T02:40:35.534Z,99597.47
2023-04-24T02:43:03.654Z,99591.28
2023-04-24T02:45:31.957Z,99586.78
2023-04-24T02:48:00.129Z,99586.78
2023-04-24T02:50:29.593Z,99585.09
2023-04-24T02:52:57.637Z,99580.56
2023-04-24T02:55:26.184Z,99581.59
2023-04-24T02:57:54.206Z,99579.75
2023-04-24T03:00:22.501Z,99579.75
2023-04-24T03:02:51.037Z,99579.75
2023-04-24T03:05:19.229Z,99579.75
2023-04-24T03:07:48.728Z,99575.22
2023-04-24T03:10:16.794Z,99579.75
2023-04-24T03:12:44.845Z,99576.06
2023-04-24T03:15:13.194Z,99569.03
2023-04-24T03:17:41.332Z,99567.34
2023-04-24T03:20:10.858Z,99553.94
2023-04-24T03:22:38.985Z,99569.03
2023-04-24T03:25:10.480Z,99570.03
2023-04-24T03:27:38.786Z,99565.69
2023-04-24T03:30:08.262Z,99560.34
2023-04-24T03:32:36.382Z,99554.28
2023-04-24T03:35:04.551Z,99558.34
2023-04-24T03:37:32.644Z,99545.94
2023-04-24T03:40:00.687Z,99552.13
2023-04-24T03:42:30.140Z,99546.94
2023-04-24T03:44:58.278Z,99545.94
2023-04-24T03:47:26.414Z,99545.94
2023-04-24T03:49:55.751Z,99540.59
2023-04-24T03:52:23.883Z,99540.59
2023-04-24T03:54:52.226Z,99546.78
2023-04-24T03:57:20.433Z,99535.22
2023-04-24T03:59:49.901Z,99544.28
2023-04-24T04:02:18.083Z,99548.59
2023-04-24T04:04:46.836Z,99540.59
2023-04-24T04:07:15.481Z,99533.88
2023-04-24T04:09:43.682Z,99540.59
2023-04-24T04:12:11.886Z,99545.13
2023-04-24T04:14:40.100Z,99538.59
2023-04-24T04:17:09.522Z,99550.31
2023-04-24T04:19:37.566Z,99538.91
2023-04-24T04:22:05.667Z,99539.59
2023-04-24T04:24:33.764Z,99533.41
2023-04-24T04:27:02.498Z,99525.69
2023-04-24T04:29:30.591Z,99529.88
2023-04-24T04:31:58.670Z,99535.22
2023-04-24T04:34:28.104Z,99533.56
2023-04-24T04:36:56.214Z,99506.75
2023-04-24T04:39:24.273Z,99538.91
2023-04-24T04:41:52.320Z,99551.28
2023-04-24T04:44:20.341Z,99541.44
2023-04-24T04:46:48.474Z,99454.75
2023-04-24T04:49:17.850Z,99544.94
2023-04-24T04:51:48.151Z,99540.59
2023-04-24T04:54:16.864Z,99547.63
2023-04-24T04:56:44.927Z,99536.94
2023-04-24T04:59:13.491Z,99539.75
2023-04-24T05:01:41.744Z,99541.59
2023-04-24T05:04:09.951Z,99534.41
2023-04-24T05:06:38.086Z,99530.88
2023-04-24T05:09:08.557Z,99534.41
2023-04-24T05:11:36.576Z,99536.41
2023-04-24T05:14:04.645Z,99538.91
2023-04-24T05:16:33.072Z,99533.56
2023-04-24T05:19:01.177Z,99487.00
2023-04-24T05:21:29.457Z,99515.31
2023-04-24T05:23:58.066Z,99519.53
2023-04-24T05:26:27.969Z,99523.72
2023-04-24T05:28:56.269Z,99525.25
2023-04-24T05:31:24.407Z,99521.56
2023-04-24T05:33:52.475Z,99523.22
2023-04-24T05:36:21.770Z,99522.25
2023-04-24T05:38:49.965Z,99507.81
2023-04-24T05:41:17.978Z,99523.22
2023-04-24T05:43:47.562Z,99521.91
2023-04-24T05:46:15.724Z,99494.44
2023-04-24T05:48:43.828Z,99527.91
2023-04-24T05:51:11.973Z,99522.56
2023-04-24T05:53:40.369Z,99517.22
2023-04-24T05:56:08.891Z,99507.16
2023-04-24T05:58:38.583Z,99525.94
2023-04-24T06:01:08.006Z,99516.22
2023-04-24T06:03:36.232Z,99523.41
2023-04-24T06:06:04.520Z,99521.44
2023-04-24T06:08:32.605Z,99510.72
2023-04-24T06:11:02.700Z,99517.22
2023-04-24T06:13:32.079Z,99508.53
2023-04-24T06:16:00.671Z,99508.53
2023-04-24T06:18:30.223Z,99476.66
2023-04-24T06:20:58.305Z,99497.81
2023-04-24T06:23:26.444Z,99501.84
2023-04-24T06:25:54.593Z,99499.16
2023-04-24T06:28:22.673Z,99477.72
2023-04-24T06:30:50.831Z,99499.69
2023-04-24T06:33:21.626Z,99514.88
2023-04-24T06:35:52.480Z,99509.53
2023-04-24T06:38:20.900Z,99501.66
2023-04-24T06:40:49.141Z,99505.84
2023-04-24T06:43:17.221Z,99501.88
2023-04-24T06:45:46.386Z,99510.53
2023-04-24T06:48:14.718Z,99517.59
2023-04-24T06:50:42.796Z,99500.16
2023-04-24T06:53:13.853Z,99516.75
2023-04-24T06:55:42.205Z,99514.91
2023-04-24T06:58:10.456Z,99522.94
2023-04-24T07:00:38.899Z,99529.97
2023-04-24T07:03:07.516Z,99518.75
2023-04-24T07:05:36.509Z,99534.00
2023-04-24T07:08:05.537Z,99508.53
2023-04-24T07:10:35.194Z,99537.00
2023-04-24T07:13:03.441Z,99502.31
2023-04-24T07:15:31.745Z,99530.63
2023-04-24T07:18:00.089Z,99537.00
2023-04-24T07:20:28.422Z,99537.00
2023-04-24T07:22:56.507Z,99535.16
2023-04-24T07:25:24.556Z,99504.00
2023-04-24T07:27:55.930Z,99536.16
2023-04-24T07:30:24.179Z,99515.56
2023-04-24T07:32:52.438Z,99542.53
2023-04-24T07:35:21.132Z,99547.06
2023-04-24T07:37:49.273Z,99536.31
2023-04-24T07:40:18.115Z,99527.75
2023-04-24T07:42:46.310Z,99565.81
2023-04-24T07:45:16.152Z,99556.75
2023-04-24T07:47:46.741Z,99565.44
2023-04-24T07:50:15.058Z,99525.25
2023-04-24T07:52:43.162Z,99554.09
2023-04-24T07:55:11.366Z,99563.44
2023-04-24T07:57:39.701Z,99531.63
2023-04-24T08:00:11.182Z,99559.94
2023-04-24T08:02:42.500Z,99560.09
2023-04-24T08:05:11.424Z,99553.06
2023-04-24T08:07:40.377Z,99554.72
2023-04-24T08:10:09.771Z,99507.00
2023-04-24T08:12:38.123Z,99548.03
2023-04-24T08:15:07.609Z,99537.00
2023-04-24T08:17:36.555Z,99514.88
2023-04-24T08:20:06.963Z,99525.09
2023-04-24T08:22:35.050Z,99489.09
2023-04-24T08:25:03.723Z,99509.22
2023-04-24T08:27:32.335Z,99525.97
2023-04-24T08:30:00.997Z,99518.94
2023-04-24T08:32:30.081Z,99518.94
2023-04-24T08:34:58.494Z,99514.41
2023-04-24T08:37:29.557Z,99509.88
2023-04-24T08:39:58.391Z,99498.31
2023-04-24T08:42:27.107Z,99499.19
2023-04-24T08:44:55.493Z,99494.47
2023-04-24T08:47:25.890Z,99506.19
2023-04-24T08:49:55.331Z,99433.84
2023-04-24T08:52:24.079Z,99507.03
2023-04-24T08:54:56.001Z,99477.06
2023-04-24T08:57:24.598Z,99488.78
2023-04-24T08:59:53.246Z,99473.72
2023-04-24T09:02:22.031Z,99471.19
2023-04-24T09:04:52.021Z,99480.91
2023-04-24T09:07:21.754Z,99492.63
2023-04-24T09:09:52.727Z,99489.16
2023-04-24T09:12:23.721Z,99476.56
2023-04-24T09:14:52.678Z,99440.41
2023-04-24T09:17:20.812Z,99486.47
2023-04-24T09:19:48.907Z,99481.13
2023-04-24T09:22:17.564Z,99475.75
2023-04-24T09:24:48.394Z,99453.31
2023-04-24T09:27:18.331Z,99461.34
2023-04-24T09:29:58.151Z,99456.84
2023-04-24T09:32:27.351Z,99466.69
2023-04-24T09:35:11.702Z,99418.50
2023-04-24T09:37:43.406Z,99465.03
2023-04-24T09:40:19.388Z,99475.75
2023-04-24T09:42:53.834Z,99459.69
2023-04-24T09:45:23.475Z,99460.34
2023-04-24T09:47:56.224Z,99450.63
2023-04-24T09:50:24.337Z,99452.31
2023-04-24T09:53:00.472Z,99446.94
2023-04-24T09:55:28.837Z,99453.16
2023-04-24T09:57:58.350Z,99446.94
2023-04-24T10:00:30.881Z,99430.88
2023-04-24T10:03:00.214Z,99435.41
2023-04-24T10:05:33.581Z,99402.44
2023-04-24T10:08:07.355Z,99424.69
2023-04-24T10:10:39.396Z,99422.19
2023-04-24T10:13:07.948Z,99416.84
2023-04-24T10:15:38.016Z,99412.81
2023-04-24T10:18:08.001Z,99414.81
2023-04-24T10:20:39.241Z,99386.03
2023-04-24T10:23:08.116Z,99398.59
2023-04-24T10:25:38.749Z,99391.72
2023-04-24T10:28:11.059Z,99385.69
2023-04-24T10:30:44.955Z,99360.59
2023-04-24T10:33:14.526Z,99327.81
2023-04-24T10:35:46.683Z,99379.00
2023-04-24T10:38:16.610Z,99383.69
2023-04-24T10:40:45.237Z,99381.00
2023-04-24T10:43:18.597Z,99348.22
2023-04-24T10:46:04.079Z,99368.63
2023-04-24T10:48:33.439Z,99379.34
2023-04-24T10:51:01.729Z,99361.91
2023-04-24T10:53:31.108Z,99371.66
2023-04-24T10:56:06.782Z,99360.78
2023-04-24T10:58:41.312Z,99372.28
2023-04-24T11:01:11.251Z,99343.19
2023-04-24T11:03:42.947Z,99358.41
2023-04-24T11:06:11.860Z,99344.84
2023-04-24T11:08:41.593Z,99346.53
2023-04-24T11:11:14.456Z,99345.53
2023-04-24T11:14:08.551Z,99340.84
2023-04-24T11:16:41.721Z,99338.19
2023-04-24T11:19:11.280Z,99326.78
2023-04-24T11:21:44.122Z,99309.41
2023-04-24T11:24:26.865Z,99300.50
2023-04-24T11:26:56.588Z,99332.63
2023-04-24T11:29:28.810Z,99334.47
2023-04-24T11:31:58.460Z,99328.09
2023-04-24T11:34:27.180Z,99269.75
2023-04-24T11:36:56.548Z,99335.13
2023-04-24T11:39:27.936Z,99331.47
2023-04-24T11:42:04.294Z,99299.34
2023-04-24T11:44:33.763Z,99332.28
2023-04-24T11:47:03.291Z,99323.94
2023-04-24T11:49:31.510Z,99327.78
2023-04-24T11:52:01.269Z,99327.78
2023-04-24T11:54:29.600Z,99325.59
2023-04-24T11:56:58.776Z,99326.09
2023-04-24T11:59:27.166Z,99318.72
2023-04-24T12:01:55.334Z,99323.25
2023-04-24T12:04:25.013Z,99329.44
2023-04-24T12:07:02.632Z,99315.06
2023-04-24T12:09:31.102Z,99313.38
2023-04-24T12:11:59.719Z,99324.94
2023-04-24T12:14:27.800Z,99300.00
2023-04-24T12:16:56.317Z,99315.22
2023-04-24T12:19:26.347Z,99300.00
2023-04-24T12:22:05.091Z,99310.69
2023-04-24T12:24:34.110Z,99309.69
2023-04-24T12:27:02.729Z,99310.84
2023-04-24T12:29:30.915Z,99313.38
2023-04-24T12:31:59.298Z,99313.38
2023-04-24T12:34:28.857Z,99308.00
2023-04-24T12:36:56.971Z,99310.50
2023-04-24T12:39:27.768Z,99299.00
2023-04-24T12:41:59.510Z,99306.00
2023-04-24T12:44:35.515Z,99306.84
2023-04-24T12:47:03.983Z,99289.94
2023-04-24T12:49:34.066Z,99299.00
2023-04-24T12:52:02.095Z,99217.09
2023-04-24T12:54:35.073Z,99302.31
2023-04-24T12:57:03.226Z,99302.31
2023-04-24T12:59:31.772Z,99298.66
2023-04-24T13:02:00.281Z,99303.16
2023-04-24T13:04:28.552Z,99295.97
2023-04-24T13:06:58.136Z,99306.69
2023-04-24T13:09:26.236Z,99308.50
2023-04-24T13:11:54.396Z,99313.03
2023-04-24T13:14:22.503Z,99298.66
2023-04-24T13:16:50.738Z,99298.66
2023-04-24T13:19:19.074Z,99271.56
2023-04-24T13:21:47.592Z,99299.28
2023-04-24T13:24:17.112Z,99293.75
2023-04-24T13:26:45.234Z,99244.47
2023-04-24T13:29:13.280Z,99289.25
2023-04-24T13:31:41.402Z,99276.19
2023-04-24T13:34:09.535Z,99282.25
2023-04-24T13:36:37.806Z,99210.03
2023-04-24T13:39:07.690Z,99276.88
2023-04-24T13:41:37.381Z,99287.59
2023-04-24T13:44:05.683Z,99282.25
2023-04-24T13:46:34.008Z,99282.25
2023-04-24T13:49:02.372Z,99271.53
2023-04-24T13:51:30.595Z,99272.69
2023-04-24T13:53:58.810Z,99273.34
2023-04-24T13:56:27.005Z,99275.19
2023-04-24T13:58:56.575Z,99200.00
2023-04-24T14:01:26.073Z,99265.50
2023-04-24T14:03:54.575Z,99269.84
2023-04-24T14:06:23.192Z,99280.53
2023-04-24T14:08:52.071Z,99271.53
2023-04-24T14:11:21.145Z,99256.16
2023-04-24T14:13:49.975Z,99269.84
2023-04-24T14:16:19.909Z,99254.44
2023-04-24T14:18:47.974Z,99266.16
2023-04-24T14:21:16.021Z,99255.44
2023-04-24T14:23:45.538Z,99258.31
2023-04-24T14:26:13.972Z,99264.47
2023-04-24T14:28:42.069Z,99264.47
2023-04-24T14:31:10.739Z,99259.13
2023-04-24T14:33:40.536Z,99260.81
2023-04-24T14:36:08.936Z,99257.13
2023-04-24T14:38:37.215Z,99262.47
2023-04-24T14:41:13.992Z,99234.06
2023-04-24T14:43:43.075Z,99244.44
2023-04-24T14:46:13.662Z,99258.31
2023-04-24T14:48:43.172Z,99248.44
2023-04-24T14:51:11.198Z,99261.16
2023-04-24T14:53:39.420Z,99238.06
2023-04-24T14:56:08.087Z,99235.41
2023-04-24T14:58:37.024Z,99217.19
2023-04-24T15:01:05.630Z,99246.75
2023-04-24T15:03:34.222Z,99245.91
2023-04-24T15:06:03.840Z,99240.38
2023-04-24T15:08:32.268Z,99240.38
2023-04-24T15:11:00.500Z,99211.97
2023-04-24T15:13:28.567Z,99241.94
2023-04-24T15:15:56.659Z,99248.09
2023-04-24T15:18:24.858Z,99231.84
2023-04-24T15:20:52.907Z,99223.63
2023-04-24T15:23:22.379Z,99226.31
2023-04-24T15:25:50.496Z,99231.69
2023-04-24T15:28:19.067Z,99224.66
2023-04-24T15:30:47.579Z,99153.47
2023-04-24T15:33:15.793Z,99220.97
2023-04-24T15:35:46.876Z,99221.81
2023-04-24T15:38:15.832Z,99190.91
2023-04-24T15:40:45.824Z,99194.22
2023-04-24T15:43:13.883Z,99218.47
2023-04-24T15:45:42.033Z,99224.66
2023-04-24T15:48:10.085Z,99228.34
2023-04-24T15:50:38.184Z,99230.34
2023-04-24T15:53:06.327Z,99219.97
2023-04-24T15:55:34.853Z,99234.38
2023-04-24T15:58:04.657Z,99169.22
2023-04-24T16:00:34.445Z,99224.00
2023-04-24T16:03:03.222Z,99199.78
2023-04-24T16:05:31.571Z,99224.34
2023-04-24T16:07:59.686Z,99221.00
2023-04-24T16:10:28.122Z,99218.16
2023-04-24T16:12:56.430Z,99214.78
2023-04-24T16:15:25.913Z,99231.06
2023-04-24T16:17:54.240Z,99230.03
2023-04-24T16:20:22.435Z,99231.06
2023-04-24T16:22:50.662Z,99226.69
2023-04-24T16:25:18.957Z,99230.38
2023-04-24T16:27:48.849Z,99224.19
2023-04-24T16:30:17.850Z,99224.19
2023-04-24T16:32:47.489Z,99218.00
2023-04-24T16:35:15.667Z,99223.38
2023-04-24T16:37:43.812Z,99220.03
2023-04-24T16:40:12.436Z,99217.34
2023-04-24T16:42:40.838Z,99220.03
2023-04-24T16:45:10.428Z,99221.03
2023-04-24T16:47:38.775Z,99213.81
2023-04-24T16:50:09.892Z,99211.13
2023-04-24T16:52:37.957Z,99206.28
2023-04-24T16:55:06.821Z,99214.66
2023-04-24T16:57:34.961Z,99210.97
2023-04-24T17:00:04.074Z,99210.97
2023-04-24T17:02:32.395Z,99216.31
2023-04-24T17:05:00.643Z,99210.97
2023-04-24T17:07:31.070Z,99217.16
2023-04-24T17:09:59.150Z,99214.66
2023-04-24T17:12:27.171Z,99209.31
2023-04-24T17:14:55.287Z,99209.31
2023-04-24T17:17:23.996Z,99209.31
2023-04-24T17:19:52.362Z,99223.72
2023-04-24T17:22:20.448Z,99213.00
2023-04-24T17:24:49.900Z,99211.31
2023-04-24T17:27:17.968Z,99210.31
2023-04-24T17:29:46.105Z,99207.31
2023-04-24T17:32:14.199Z,99210.63
2023-04-24T17:34:42.268Z,99200.09
2023-04-24T17:37:10.387Z,99204.94
2023-04-24T17:39:38.403Z,99204.94
2023-04-24T17:42:07.974Z,99203.25
2023-04-24T17:44:36.041Z,99206.97
2023-04-24T17:47:05.116Z,99213.31
2023-04-24T17:49:33.476Z,99214.31
2023-04-24T17:52:01.569Z,99206.28
2023-04-24T17:54:29.600Z,99201.94
2023-04-24T17:56:57.857Z,99204.81
2023-04-24T17:59:27.678Z,99166.03
2023-04-24T18:01:55.785Z,99204.97
2023-04-24T18:04:23.993Z,99202.28
2023-04-24T18:06:52.206Z,99207.66
2023-04-24T18:09:22.017Z,99191.41
2023-04-24T18:11:50.274Z,99195.94
2023-04-24T18:14:18.390Z,99204.97
2023-04-24T18:16:48.312Z,99213.00
2023-04-24T18:19:16.693Z,99212.16
2023-04-24T18:21:44.745Z,99222.88
2023-04-24T18:24:12.780Z,99220.34
2023-04-24T18:26:40.988Z,99139.81
2023-04-24T18:29:09.067Z,99218.69
2023-04-24T18:31:37.530Z,99213.34
2023-04-24T18:34:07.095Z,99215.00
2023-04-24T18:36:35.172Z,99219.50
2023-04-24T18:39:04.035Z,99208.00
2023-04-24T18:41:32.190Z,99141.19
2023-04-24T18:44:00.301Z,99210.00
2023-04-24T18:46:28.776Z,99209.66
2023-04-24T18:48:56.805Z,99211.47
2023-04-24T18:51:26.472Z,99213.34
2023-04-24T18:53:54.561Z,99192.28
2023-04-24T18:56:22.635Z,99220.34
2023-04-24T18:58:52.116Z,99223.03
2023-04-24T19:01:20.280Z,99225.03
2023-04-24T19:03:48.566Z,99226.91
2023-04-24T19:06:17.092Z,99221.56
2023-04-24T19:08:47.662Z,99226.06
2023-04-24T19:11:16.027Z,99213.69
2023-04-24T19:13:44.154Z,99215.53
2023-04-24T19:16:12.255Z,99219.03
2023-04-24T19:18:40.305Z,99208.66
2023-04-24T19:21:08.733Z,99212.00
2023-04-24T19:23:39.775Z,99212.00
2023-04-24T19:26:09.461Z,99217.34
2023-04-24T19:28:39.162Z,99213.84
2023-04-24T19:31:07.497Z,99194.31
2023-04-24T19:33:35.829Z,99210.69
2023-04-24T19:36:04.359Z,99215.69
2023-04-24T19:38:32.524Z,99212.00
2023-04-24T19:41:00.668Z,99222.69
2023-04-24T19:43:30.151Z,99217.34
2023-04-24T19:45:58.712Z,99191.63
2023-04-24T19:48:31.009Z,99210.34
2023-04-24T19:50:59.177Z,99210.34
2023-04-24T19:53:27.240Z,99217.34
2023-04-24T19:55:55.521Z,99217.34
2023-04-24T19:58:23.602Z,99212.00
2023-04-24T20:00:53.121Z,99208.34
2023-04-24T20:03:32.094Z,99216.53
2023-04-24T20:06:01.326Z,99211.19
2023-04-24T20:08:29.473Z,99210.34
2023-04-24T20:10:58.560Z,99206.63
2023-04-24T20:13:27.746Z,99199.63
2023-04-24T20:15:57.252Z,99203.31
2023-04-24T20:18:25.383Z,99203.31
2023-04-24T20:20:57.031Z,99203.31
2023-04-24T20:23:25.129Z,99202.47
2023-04-24T20:25:58.522Z,99196.28
2023-04-24T20:28:27.324Z,99152.84
2023-04-24T20:30:57.241Z,99199.63
2023-04-24T20:33:25.943Z,99196.28
2023-04-24T20:35:54.041Z,99185.56
2023-04-24T20:38:22.643Z,99187.25
2023-04-24T20:40:57.811Z,99180.22
2023-04-24T20:43:28.870Z,99183.72
2023-04-24T20:45:58.995Z,99174.84
2023-04-24T20:48:27.354Z,99185.56
2023-04-24T20:50:56.052Z,99179.41
2023-04-24T20:53:24.487Z,99176.53
2023-04-24T20:55:52.609Z,99176.53
2023-04-24T20:58:22.207Z,99173.03
2023-04-24T21:00:50.982Z,99159.81
2023-04-24T21:03:20.616Z,99165.84
2023-04-24T21:05:48.909Z,99167.00
2023-04-24T21:08:17.148Z,99166.47
2023-04-24T21:10:45.239Z,99154.28
2023-04-24T21:13:13.381Z,99155.47
2023-04-24T21:15:41.524Z,99163.16
2023-04-24T21:18:09.836Z,99164.16
2023-04-24T21:20:39.354Z,99132.09
2023-04-24T21:23:07.511Z,99158.78
2023-04-24T21:25:36.987Z,99148.94
2023-04-24T21:28:05.606Z,99142.59
2023-04-24T21:30:33.670Z,99152.63
2023-04-24T21:33:02.040Z,99150.75
2023-04-24T21:35:30.140Z,99147.28
2023-04-24T21:37:59.574Z,99142.72
2023-04-24T21:40:27.648Z,99141.06
2023-04-24T21:42:55.920Z,99137.72
2023-04-24T21:45:24.174Z,99137.38
2023-04-24T21:47:52.271Z,99126.66
2023-04-24T21:50:20.446Z,99137.38
2023-04-24T21:52:48.505Z,99137.38
2023-04-24T21:55:18.087Z,99141.91
2023-04-24T21:57:46.880Z,99135.72
2023-04-24T22:00:15.304Z,99115.69
2023-04-24T22:02:43.994Z,99138.41
2023-04-24T22:05:15.715Z,99133.03
2023-04-24T22:07:49.736Z,99135.72
2023-04-24T22:10:20.148Z,99135.72
2023-04-24T22:12:48.294Z,99132.03
2023-04-24T22:15:16.354Z,99125.00
2023-04-24T22:17:44.671Z,99119.66
2023-04-24T22:20:13.984Z,99119.66
2023-04-24T22:22:42.189Z,99046.88
2023-04-24T22:25:11.256Z,99092.59
2023-04-24T22:27:40.701Z,99103.59
2023-04-24T22:30:11.173Z,99068.88
2023-04-24T22:32:39.265Z,99108.94
2023-04-24T22:35:08.249Z,99105.59
2023-04-24T22:37:36.501Z,99109.78
2023-04-24T22:40:05.597Z,99101.94
2023-04-24T22:42:33.632Z,99103.59
2023-04-24T22:45:04.601Z,99101.94
2023-04-24T22:47:32.709Z,99103.59
2023-04-24T22:50:00.976Z,99098.41
2023-04-24T22:52:30.448Z,99101.94
2023-04-24T22:54:59.891Z,99097.41
2023-04-24T22:57:29.804Z,99092.88
2023-04-24T22:59:58.217Z,99107.13
2023-04-24T23:02:29.760Z,99092.03
2023-04-24T23:04:57.843Z,99101.94
2023-04-24T23:07:26.011Z,99091.22
2023-04-24T23:09:54.099Z,99091.22
2023-04-24T23:12:22.167Z,99074.88
2023-04-24T23:14:50.691Z,99076.56
2023-04-24T23:17:20.092Z,99091.22
2023-04-24T23:19:49.696Z,99082.19
2023-04-24T23:22:17.823Z,99082.19
2023-04-24T23:24:46.003Z,99082.19
2023-04-24T23:27:14.090Z,99077.16
2023-04-24T23:29:42.195Z,99080.88
2023-04-24T23:32:10.310Z,99080.88
2023-04-24T23:34:39.598Z,99080.03
2023-04-24T23:37:09.281Z,99076.50
2023-04-24T23:39:37.629Z,99068.47
2023-04-24T23:42:05.832Z,99073.81
2023-04-24T23:44:35.107Z,99075.50
2023-04-24T23:47:03.527Z,99063.00
2023-04-24T23:49:31.659Z,99052.66
2023-04-24T23:51:59.777Z,99070.16
2023-04-24T23:54:29.234Z,99070.16
2023-04-24T23:56:57.472Z,99080.88
2023-04-24T23:59:25.616Z,99069.50
